Terminal Aerodrome Forecast
Issued by NWS

Home | Current Version | Previous Version | Text Only | Print | Product List | Glossary On
Versions: 1 2 3 4 5 6 7 8 9 10 11 12 13 14 15 16
000
FTUS45 KSLC 221136
TAFSGU
TAF
KSGU 221136Z 2212/2312 VRB04KT P6SM SCT060 BKN120
     FM221300 VRB04KT P6SM VCSH SCT030 BKN060
     FM221700 12007KT 6SM -RA BR SCT020 BKN040
      AMD LTD TO CLD VIS AND WIND=

USA.gov is the U.S. government's official web portal to all federal, state and local government web resources and services.